Time,TemperatureF,DewpointF,PressureIn,WindDirection,WindDirectionDegrees,WindSpeedMPH,WindSpeedGustMPH,Humidity,HourlyPrecipIn,Conditions,Clouds,dailyrainin,SoftwareType,DateUTC
2013-01-27 00:00:00,23.3,17.7,30.42,ESE,122,0.0,0.0,79,0.00,,,0.02,WUHU216DAVISVP2,2013-01-27 05:00:00,
2013-01-27 00:02:00,23.2,17.4,30.42,ESE,122,0.0,0.0,78,0.00,,,0.00,WUHU216DAVISVP2,2013-01-27 05:02:00,
2013-01-27 00:03:00,23.2,17.4,30.42,ESE,122,0.0,0.0,78,0.00,,,0.00,WUHU216DAVISVP2,2013-01-27 05:03:00,
2013-01-27 00:09:00,23.2,17.7,30.42,ESE,122,0.0,0.0,79,0.00,,,0.00,WUHU216DAVISVP2,2013-01-27 05:09:00,
2013-01-27 00:14:00,23.3,17.7,30.42,ESE,122,0.0,0.0,79,0.00,,,0.00,WUHU216DAVISVP2,2013-01-27 05:14:00,
2013-01-27 00:19:00,23.6,17.7,30.42,ESE,122,0.0,0.0,78,0.00,,,0.00,WUHU216DAVISVP2,2013-01-27 05:19:00,
2013-01-27 00:24:00,23.6,17.4,30.42,ESE,122,0.0,0.0,77,0.00,,,0.00,WUHU216DAVISVP2,2013-01-27 05:24:00,
2013-01-27 00:29:00,23.7,17.5,30.42,ESE,122,0.0,0.0,77,0.00,,,0.00,WUHU216DAVISVP2,2013-01-27 05:29:00,
2013-01-27 00:34:00,23.9,17.7,30.43,ESE,122,0.0,0.0,77,0.00,,,0.00,WUHU216DAVISVP2,2013-01-27 05:34:00,
2013-01-27 00:39:00,24.0,17.8,30.43,ESE,122,0.0,0.0,77,0.00,,,0.00,WUHU216DAVISVP2,2013-01-27 05:39:00,
2013-01-27 00:44:00,23.9,17.4,30.44,ESE,122,0.0,0.0,76,0.00,,,0.00,WUHU216DAVISVP2,2013-01-27 05:44:00,
2013-01-27 00:49:00,23.7,17.3,30.44,ESE,122,0.0,0.0,76,0.00,,,0.00,WUHU216DAVISVP2,2013-01-27 05:49:00,
2013-01-27 00:54:00,22.9,16.5,30.44,ESE,122,0.0,0.0,76,0.00,,,0.00,WUHU216DAVISVP2,2013-01-27 05:54:00,
2013-01-27 00:59:00,22.4,16.6,30.44,ESE,122,0.0,0.0,78,0.00,,,0.00,WUHU216DAVISVP2,2013-01-27 05:59:00,
2013-01-27 01:05:00,22.2,16.4,30.44,ESE,122,0.0,0.0,78,0.00,,,0.00,WUHU216DAVISVP2,2013-01-27 06:05:00,
2013-01-27 01:08:00,22.2,16.7,30.43,ESE,122,0.0,0.0,79,0.00,,,0.00,WUHU216DAVISVP2,2013-01-27 06:08:00,
2013-01-27 01:10:00,22.2,16.7,30.43,ESE,122,0.0,0.0,79,0.00,,,0.00,WUHU216DAVISVP2,2013-01-27 06:10:00,
2013-01-27 01:15:00,22.5,17.0,30.43,ESE,122,0.0,0.0,79,0.00,,,0.00,WUHU216DAVISVP2,2013-01-27 06:15:00,
2013-01-27 01:20:00,22.5,17.0,30.43,ESE,122,0.0,0.0,79,0.00,,,0.00,WUHU216DAVISVP2,2013-01-27 06:20:00,
2013-01-27 01:25:00,22.8,17.0,30.42,ESE,122,0.0,0.0,78,0.00,,,0.00,WUHU216DAVISVP2,2013-01-27 06:25:00,
2013-01-27 01:30:00,22.9,16.8,30.42,ESE,122,0.0,0.0,77,0.00,,,0.00,WUHU216DAVISVP2,2013-01-27 06:30:00,
2013-01-27 01:35:00,23.1,17.0,30.42,ESE,122,0.0,0.0,77,0.00,,,0.00,WUHU216DAVISVP2,2013-01-27 06:35:00,
2013-01-27 01:40:00,23.0,16.6,30.42,ESE,122,0.0,0.0,76,0.00,,,0.00,WUHU216DAVISVP2,2013-01-27 06:40:00,
2013-01-27 01:45:00,22.7,16.3,30.42,ESE,122,0.0,0.0,76,0.00,,,0.00,WUHU216DAVISVP2,2013-01-27 06:45:00,
2013-01-27 01:50:00,22.5,16.4,30.42,ESE,122,0.0,0.0,77,0.00,,,0.00,WUHU216DAVISVP2,2013-01-27 06:50:00,
2013-01-27 01:55:00,22.4,16.3,30.42,ESE,122,0.0,0.0,77,0.00,,,0.00,WUHU216DAVISVP2,2013-01-27 06:55:00,
2013-01-27 02:01:00,22.4,16.3,30.42,ESE,122,0.0,0.0,77,0.00,,,0.00,WUHU216DAVISVP2,2013-01-27 07:01:00,
2013-01-27 02:06:00,22.4,16.3,30.42,ESE,122,0.0,0.0,77,0.00,,,0.00,WUHU216DAVISVP2,2013-01-27 07:06:00,
2013-01-27 02:13:00,22.9,16.2,30.42,ESE,122,0.0,0.0,75,0.00,,,0.00,WUHU216DAVISVP2,2013-01-27 07:13:00,
2013-01-27 02:18:00,22.8,16.1,30.42,ESE,122,0.0,0.0,75,0.00,,,0.00,WUHU216DAVISVP2,2013-01-27 07:18:00,
2013-01-27 02:23:00,22.6,15.9,30.42,ESE,122,0.0,0.0,75,0.00,,,0.00,WUHU216DAVISVP2,2013-01-27 07:23:00,
2013-01-27 02:28:00,22.3,15.6,30.42,ESE,122,0.0,0.0,75,0.00,,,0.00,WUHU216DAVISVP2,2013-01-27 07:28:00,
2013-01-27 02:33:00,22.1,15.7,30.42,ESE,122,0.0,0.0,76,0.00,,,0.00,WUHU216DAVISVP2,2013-01-27 07:33:00,
2013-01-27 02:38:00,21.8,15.4,30.42,ESE,122,0.0,0.0,76,0.00,,,0.00,WUHU216DAVISVP2,2013-01-27 07:38:00,
2013-01-27 02:43:00,21.7,15.3,30.42,ESE,122,0.0,0.0,76,0.00,,,0.00,WUHU216DAVISVP2,2013-01-27 07:43:00,
2013-01-27 02:48:00,21.5,15.1,30.42,ESE,122,0.0,0.0,76,0.00,,,0.00,WUHU216DAVISVP2,2013-01-27 07:48:00,
2013-01-27 02:54:00,21.2,14.8,30.42,ESE,122,0.0,0.0,76,0.00,,,0.00,WUHU216DAVISVP2,2013-01-27 07:54:00,
2013-01-27 02:59:00,20.8,14.7,30.42,ESE,122,0.0,0.0,77,0.00,,,0.00,WUHU216DAVISVP2,2013-01-27 07:59:00,
2013-01-27 03:04:00,20.6,14.6,30.42,ESE,122,0.0,0.0,77,0.00,,,0.00,WUHU216DAVISVP2,2013-01-27 08:04:00,
2013-01-27 03:09:00,20.3,14.5,30.42,ESE,122,0.0,0.0,78,0.00,,,0.00,WUHU216DAVISVP2,2013-01-27 08:09:00,
2013-01-27 03:14:00,20.0,14.3,30.42,ESE,122,0.0,0.0,78,0.00,,,0.00,WUHU216DAVISVP2,2013-01-27 08:14:00,
2013-01-27 03:19:00,19.9,14.4,30.42,ESE,122,0.0,0.0,79,0.00,,,0.00,WUHU216DAVISVP2,2013-01-27 08:19:00,
2013-01-27 03:25:00,19.8,14.3,30.42,ESE,122,0.0,0.0,79,0.00,,,0.00,WUHU216DAVISVP2,2013-01-27 08:25:00,
2013-01-27 03:27:00,19.8,14.3,30.43,ESE,122,0.0,0.0,79,0.00,,,0.00,WUHU216DAVISVP2,2013-01-27 08:27:00,
2013-01-27 03:30:00,19.8,14.3,30.43,ESE,122,0.0,0.0,79,0.00,,,0.00,WUHU216DAVISVP2,2013-01-27 08:30:00,
2013-01-27 03:35:00,19.8,14.3,30.43,ESE,122,0.0,0.0,79,0.00,,,0.00,WUHU216DAVISVP2,2013-01-27 08:35:00,
2013-01-27 03:40:00,18.8,13.1,30.43,ESE,122,0.0,0.0,78,0.00,,,0.00,WUHU216DAVISVP2,2013-01-27 08:40:00,
2013-01-27 03:45:00,18.5,13.4,30.42,ESE,122,0.0,0.0,80,0.00,,,0.00,WUHU216DAVISVP2,2013-01-27 08:45:00,
2013-01-27 03:50:00,18.5,13.9,30.42,ESE,122,0.0,0.0,82,0.00,,,0.00,WUHU216DAVISVP2,2013-01-27 08:50:00,
2013-01-27 03:55:00,18.5,14.2,30.42,ESE,122,0.0,0.0,83,0.00,,,0.00,WUHU216DAVISVP2,2013-01-27 08:55:00,
2013-01-27 04:00:00,18.8,14.5,30.42,ESE,122,0.0,0.0,83,0.00,,,0.00,WUHU216DAVISVP2,2013-01-27 09:00:00,
2013-01-27 04:05:00,18.9,14.6,30.41,ESE,122,0.0,0.0,83,0.00,,,0.00,WUHU216DAVISVP2,2013-01-27 09:05:00,
2013-01-27 04:10:00,19.0,14.7,30.41,ESE,122,0.0,0.0,83,0.00,,,0.00,WUHU216DAVISVP2,2013-01-27 09:10:00,
2013-01-27 04:15:00,19.1,14.5,30.41,ESE,122,0.0,0.0,82,0.00,,,0.00,WUHU216DAVISVP2,2013-01-27 09:15:00,
2013-01-27 04:21:00,19.0,14.4,30.41,ESE,122,0.0,0.0,82,0.00,,,0.00,WUHU216DAVISVP2,2013-01-27 09:21:00,
2013-01-27 04:26:00,18.8,14.2,30.41,ESE,122,0.0,0.0,82,0.00,,,0.00,WUHU216DAVISVP2,2013-01-27 09:26:00,
2013-01-27 04:31:00,18.7,14.1,30.42,ESE,122,0.0,0.0,82,0.00,,,0.00,WUHU216DAVISVP2,2013-01-27 09:31:00,
2013-01-27 04:36:00,18.7,14.4,30.42,ESE,122,0.0,0.0,83,0.00,,,0.00,WUHU216DAVISVP2,2013-01-27 09:36:00,
2013-01-27 04:41:00,18.8,14.2,30.42,ESE,122,0.0,0.0,82,0.00,,,0.00,WUHU216DAVISVP2,2013-01-27 09:41:00,
2013-01-27 04:46:00,18.6,13.5,30.42,ESE,122,0.0,0.0,80,0.00,,,0.00,WUHU216DAVISVP2,2013-01-27 09:46:00,
2013-01-27 04:51:00,18.4,13.3,30.43,ESE,122,0.0,0.0,80,0.00,,,0.00,WUHU216DAVISVP2,2013-01-27 09:51:00,
2013-01-27 04:56:00,17.8,12.4,30.42,ESE,122,0.0,0.0,79,0.00,,,0.00,WUHU216DAVISVP2,2013-01-27 09:56:00,
2013-01-27 05:01:00,17.5,12.7,30.42,ESE,122,0.0,0.0,81,0.00,,,0.00,WUHU216DAVISVP2,2013-01-27 10:01:00,
2013-01-27 05:06:00,17.6,13.3,30.42,ESE,122,0.0,0.0,83,0.00,,,0.00,WUHU216DAVISVP2,2013-01-27 10:06:00,
2013-01-27 05:11:00,17.8,13.5,30.42,ESE,122,0.0,0.0,83,0.00,,,0.00,WUHU216DAVISVP2,2013-01-27 10:11:00,
2013-01-27 05:17:00,18.0,13.7,30.42,ESE,122,0.0,0.0,83,0.00,,,0.00,WUHU216DAVISVP2,2013-01-27 10:17:00,
2013-01-27 05:22:00,18.2,13.9,30.42,ESE,122,0.0,0.0,83,0.00,,,0.00,WUHU216DAVISVP2,2013-01-27 10:22:00,
2013-01-27 05:27:00,18.1,13.3,30.43,ESE,122,0.0,0.0,81,0.00,,,0.00,WUHU216DAVISVP2,2013-01-27 10:27:00,
2013-01-27 05:32:00,17.7,12.9,30.42,ESE,122,0.0,0.0,81,0.00,,,0.00,WUHU216DAVISVP2,2013-01-27 10:32:00,
2013-01-27 05:37:00,17.5,12.9,30.42,ESE,122,0.0,0.0,82,0.00,,,0.00,WUHU216DAVISVP2,2013-01-27 10:37:00,
2013-01-27 05:42:00,17.5,13.2,30.42,ESE,122,0.0,0.0,83,0.00,,,0.00,WUHU216DAVISVP2,2013-01-27 10:42:00,
2013-01-27 05:47:00,17.7,13.7,30.42,ESE,122,0.0,0.0,84,0.00,,,0.00,WUHU216DAVISVP2,2013-01-27 10:47:00,
2013-01-27 05:53:00,17.9,13.6,30.42,ESE,122,0.0,0.0,83,0.00,,,0.00,WUHU216DAVISVP2,2013-01-27 10:53:00,
2013-01-27 05:58:00,18.0,13.7,30.42,ESE,122,0.0,0.0,83,0.00,,,0.00,WUHU216DAVISVP2,2013-01-27 10:58:00,
2013-01-27 06:03:00,17.9,13.6,30.42,ESE,122,0.0,0.0,83,0.00,,,0.00,WUHU216DAVISVP2,2013-01-27 11:03:00,
2013-01-27 06:08:00,18.0,13.7,30.43,ESE,122,0.0,0.0,83,0.00,,,0.00,WUHU216DAVISVP2,2013-01-27 11:08:00,
2013-01-27 06:13:00,17.9,13.6,30.43,ESE,122,0.0,0.0,83,0.00,,,0.00,WUHU216DAVISVP2,2013-01-27 11:13:00,
2013-01-27 06:18:00,17.6,13.3,30.43,ESE,122,0.0,0.0,83,0.00,,,0.00,WUHU216DAVISVP2,2013-01-27 11:18:00,
2013-01-27 06:23:00,17.4,13.1,30.44,ESE,122,0.0,0.0,83,0.00,,,0.00,WUHU216DAVISVP2,2013-01-27 11:23:00,
2013-01-27 06:28:00,17.3,13.3,30.44,ESE,122,0.0,0.0,84,0.00,,,0.00,WUHU216DAVISVP2,2013-01-27 11:28:00,
2013-01-27 06:33:00,17.4,13.4,30.44,ESE,122,0.0,0.0,84,0.00,,,0.00,WUHU216DAVISVP2,2013-01-27 11:33:00,
2013-01-27 06:38:00,17.5,13.5,30.43,ESE,122,0.0,0.0,84,0.00,,,0.00,WUHU216DAVISVP2,2013-01-27 11:38:00,
2013-01-27 06:39:00,17.5,13.5,30.43,ESE,122,0.0,0.0,84,0.00,,,0.00,WUHU216DAVISVP2,2013-01-27 11:39:00,
2013-01-27 06:43:00,17.6,13.6,30.43,ESE,122,0.0,0.0,84,0.00,,,0.00,WUHU216DAVISVP2,2013-01-27 11:43:00,
2013-01-27 06:45:00,17.6,13.6,30.44,ESE,122,0.0,0.0,84,0.00,,,0.00,WUHU216DAVISVP2,2013-01-27 11:45:00,
2013-01-27 06:48:00,17.6,13.6,30.44,ESE,122,0.0,0.0,84,0.00,,,0.00,WUHU216DAVISVP2,2013-01-27 11:48:00,
2013-01-27 06:50:00,17.6,13.6,30.44,ESE,122,0.0,0.0,84,0.00,,,0.00,WUHU216DAVISVP2,2013-01-27 11:50:00,
2013-01-27 06:53:00,17.6,13.6,30.44,ESE,122,0.0,0.0,84,0.00,,,0.00,WUHU216DAVISVP2,2013-01-27 11:53:00,
2013-01-27 06:57:00,17.6,13.6,30.44,ESE,122,0.0,0.0,84,0.00,,,0.00,WUHU216DAVISVP2,2013-01-27 11:57:00,
2013-01-27 06:58:00,17.6,13.3,30.44,ESE,122,0.0,0.0,83,0.00,,,0.00,WUHU216DAVISVP2,2013-01-27 11:58:00,
2013-01-27 07:03:00,17.6,13.6,30.44,ESE,122,0.0,0.0,84,0.00,,,0.00,WUHU216DAVISVP2,2013-01-27 12:03:00,
2013-01-27 07:09:00,17.4,13.1,30.43,ESE,122,0.0,0.0,83,0.00,,,0.00,WUHU216DAVISVP2,2013-01-27 12:09:00,
2013-01-27 07:14:00,17.1,13.1,30.44,ESE,122,0.0,0.0,84,0.00,,,0.00,WUHU216DAVISVP2,2013-01-27 12:14:00,
2013-01-27 07:19:00,17.3,13.0,30.44,ESE,122,0.0,0.0,83,0.00,,,0.00,WUHU216DAVISVP2,2013-01-27 12:19:00,
2013-01-27 07:24:00,17.1,13.1,30.43,ESE,122,0.0,0.0,84,0.00,,,0.00,WUHU216DAVISVP2,2013-01-27 12:24:00,
2013-01-27 07:29:00,17.1,13.1,30.43,ESE,122,0.0,0.0,84,0.00,,,0.00,WUHU216DAVISVP2,2013-01-27 12:29:00,
2013-01-27 07:34:00,17.0,12.7,30.43,ESE,122,0.0,0.0,83,0.00,,,0.00,WUHU216DAVISVP2,2013-01-27 12:34:00,
2013-01-27 07:39:00,16.8,12.8,30.43,ESE,122,0.0,0.0,84,0.00,,,0.00,WUHU216DAVISVP2,2013-01-27 12:39:00,
2013-01-27 07:44:00,16.8,12.8,30.43,ESE,122,0.0,0.0,84,0.00,,,0.00,WUHU216DAVISVP2,2013-01-27 12:44:00,
2013-01-27 07:50:00,16.6,12.6,30.44,ESE,122,0.0,0.0,84,0.00,,,0.00,WUHU216DAVISVP2,2013-01-27 12:50:00,
2013-01-27 07:55:00,16.6,12.6,30.44,ESE,122,0.0,0.0,84,0.00,,,0.00,WUHU216DAVISVP2,2013-01-27 12:55:00,
2013-01-27 08:00:00,16.7,12.7,30.43,ESE,122,0.0,0.0,84,0.00,,,0.00,WUHU216DAVISVP2,2013-01-27 13:00:00,
2013-01-27 08:05:00,16.7,12.7,30.44,ESE,122,0.0,0.0,84,0.00,,,0.00,WUHU216DAVISVP2,2013-01-27 13:05:00,
2013-01-27 08:10:00,16.6,12.3,30.44,ESE,122,0.0,0.0,83,0.00,,,0.00,WUHU216DAVISVP2,2013-01-27 13:10:00,
2013-01-27 08:15:00,16.5,12.2,30.43,ESE,122,0.0,0.0,83,0.00,,,0.00,WUHU216DAVISVP2,2013-01-27 13:15:00,
2013-01-27 08:20:00,16.2,12.2,30.43,ESE,122,0.0,0.0,84,0.00,,,0.00,WUHU216DAVISVP2,2013-01-27 13:20:00,
2013-01-27 08:25:00,16.2,12.2,30.43,ESE,122,0.0,0.0,84,0.00,,,0.00,WUHU216DAVISVP2,2013-01-27 13:25:00,
2013-01-27 08:30:00,16.1,12.1,30.43,ESE,122,0.0,0.0,84,0.00,,,0.00,WUHU216DAVISVP2,2013-01-27 13:30:00,
2013-01-27 08:35:00,16.1,12.1,30.44,ESE,122,0.0,0.0,84,0.00,,,0.00,WUHU216DAVISVP2,2013-01-27 13:35:00,
2013-01-27 08:40:00,16.1,12.1,30.44,ESE,122,0.0,0.0,84,0.00,,,0.00,WUHU216DAVISVP2,2013-01-27 13:40:00,
2013-01-27 08:46:00,16.2,12.2,30.44,ESE,122,0.0,0.0,84,0.00,,,0.00,WUHU216DAVISVP2,2013-01-27 13:46:00,
2013-01-27 08:51:00,16.4,12.7,30.44,ESE,123,0.0,0.0,85,0.00,,,0.00,WUHU216DAVISVP2,2013-01-27 13:51:00,
2013-01-27 08:56:00,16.6,12.6,30.44,ESE,123,0.0,0.0,84,0.00,,,0.00,WUHU216DAVISVP2,2013-01-27 13:56:00,
2013-01-27 09:01:00,16.9,12.9,30.44,ESE,123,0.0,0.0,84,0.00,,,0.00,WUHU216DAVISVP2,2013-01-27 14:01:00,
2013-01-27 09:06:00,17.1,13.1,30.44,ESE,123,0.0,0.0,84,0.00,,,0.00,WUHU216DAVISVP2,2013-01-27 14:06:00,
2013-01-27 09:11:00,17.2,13.2,30.44,ESE,123,0.0,0.0,84,0.00,,,0.00,WUHU216DAVISVP2,2013-01-27 14:11:00,
2013-01-27 09:16:00,18.4,14.1,30.44,ESE,123,0.0,0.0,83,0.00,,,0.00,WUHU216DAVISVP2,2013-01-27 14:16:00,
2013-01-27 09:21:00,18.8,14.2,30.44,WNW,290,0.0,0.0,82,0.00,,,0.00,WUHU216DAVISVP2,2013-01-27 14:21:00,
2013-01-27 09:26:00,19.0,14.1,30.44,South,173,0.0,0.0,81,0.00,,,0.00,WUHU216DAVISVP2,2013-01-27 14:26:00,
2013-01-27 09:32:00,19.4,14.5,30.44,South,169,0.0,0.0,81,0.00,,,0.00,WUHU216DAVISVP2,2013-01-27 14:32:00,
2013-01-27 09:37:00,19.9,14.7,30.44,NW,316,0.0,0.0,80,0.00,,,0.00,WUHU216DAVISVP2,2013-01-27 14:37:00,
2013-01-27 09:42:00,20.6,15.1,30.44,NW,304,0.0,0.0,79,0.00,,,0.00,WUHU216DAVISVP2,2013-01-27 14:42:00,
2013-01-27 09:47:00,21.0,14.9,30.43,ESE,122,0.0,0.0,77,0.00,,,0.00,WUHU216DAVISVP2,2013-01-27 14:47:00,
2013-01-27 09:52:00,21.3,15.2,30.43,WSW,244,0.0,0.0,77,0.00,,,0.00,WUHU216DAVISVP2,2013-01-27 14:52:00,
2013-01-27 09:57:00,21.6,15.2,30.43,ESE,112,0.0,0.0,76,0.00,,,0.00,WUHU216DAVISVP2,2013-01-27 14:57:00,
2013-01-27 10:02:00,21.8,15.4,30.43,WSW,242,0.0,0.0,76,0.00,,,0.00,WUHU216DAVISVP2,2013-01-27 15:02:00,
2013-01-27 10:08:00,22.1,15.4,30.43,WNW,290,0.0,0.0,75,0.00,,,0.00,WUHU216DAVISVP2,2013-01-27 15:08:00,
2013-01-27 10:13:00,22.8,15.8,30.43,ESE,123,0.0,0.0,74,0.00,,,0.00,WUHU216DAVISVP2,2013-01-27 15:13:00,
2013-01-27 10:18:00,22.8,15.8,30.43,South,190,0.0,0.0,74,0.00,,,0.00,WUHU216DAVISVP2,2013-01-27 15:18:00,
2013-01-27 10:23:00,23.0,15.9,30.42,West,275,0.0,0.0,74,0.00,,,0.00,WUHU216DAVISVP2,2013-01-27 15:23:00,
2013-01-27 10:28:00,23.3,16.2,30.42,NW,310,0.0,0.0,74,0.00,,,0.00,WUHU216DAVISVP2,2013-01-27 15:28:00,
2013-01-27 10:33:00,23.4,16.1,30.43,NW,304,0.0,0.0,73,0.00,,,0.00,WUHU216DAVISVP2,2013-01-27 15:33:00,
2013-01-27 10:38:00,24.0,17.0,30.43,West,269,0.0,0.0,74,0.00,,,0.00,WUHU216DAVISVP2,2013-01-27 15:38:00,
2013-01-27 10:43:00,24.3,16.2,30.43,WNW,296,0.0,0.0,71,0.00,,,0.00,WUHU216DAVISVP2,2013-01-27 15:43:00,
2013-01-27 10:49:00,24.6,16.9,30.44,North,355,0.0,0.0,72,0.00,,,0.00,WUHU216DAVISVP2,2013-01-27 15:49:00,
2013-01-27 10:54:00,25.1,17.3,30.44,NE,44,0.0,0.0,72,0.00,,,0.00,WUHU216DAVISVP2,2013-01-27 15:54:00,
2013-01-27 10:59:00,25.4,17.3,30.43,NW,321,0.0,0.0,71,0.00,,,0.00,WUHU216DAVISVP2,2013-01-27 15:59:00,
2013-01-27 11:04:00,25.4,17.4,30.43,NW,306,0.0,0.0,71,0.00,,,0.00,WUHU216DAVISVP2,2013-01-27 16:04:00,
2013-01-27 11:09:00,25.3,17.6,30.43,NNW,344,0.0,0.0,72,0.00,,,0.00,WUHU216DAVISVP2,2013-01-27 16:09:00,
2013-01-27 11:14:00,25.5,17.8,30.43,North,355,0.0,0.0,72,0.00,,,0.00,WUHU216DAVISVP2,2013-01-27 16:14:00,
2013-01-27 11:19:00,25.8,17.7,30.43,NNW,333,0.0,0.0,71,0.00,,,0.00,WUHU216DAVISVP2,2013-01-27 16:19:00,
2013-01-27 11:24:00,25.8,17.4,30.43,NW,325,0.0,0.0,70,0.00,,,0.00,WUHU216DAVISVP2,2013-01-27 16:24:00,
2013-01-27 11:29:00,25.6,17.2,30.43,North,9,0.0,0.0,70,0.00,,,0.00,WUHU216DAVISVP2,2013-01-27 16:29:00,
2013-01-27 11:34:00,25.7,17.3,30.43,West,269,0.0,0.0,70,0.00,,,0.00,WUHU216DAVISVP2,2013-01-27 16:34:00,
2013-01-27 11:39:00,25.6,16.9,30.43,WSW,250,0.0,0.0,69,0.00,,,0.00,WUHU216DAVISVP2,2013-01-27 16:39:00,
2013-01-27 11:44:00,25.4,16.7,30.42,NNW,328,0.0,0.0,69,0.00,,,0.00,WUHU216DAVISVP2,2013-01-27 16:44:00,
2013-01-27 11:49:00,25.4,16.7,30.43,SSW,213,0.0,0.0,69,0.00,,,0.00,WUHU216DAVISVP2,2013-01-27 16:49:00,
2013-01-27 11:54:00,25.5,16.8,30.42,WNW,296,0.0,0.0,69,0.00,,,0.00,WUHU216DAVISVP2,2013-01-27 16:54:00,
2013-01-27 12:00:00,25.6,16.9,30.42,NNW,347,0.0,0.0,69,0.00,,,0.00,WUHU216DAVISVP2,2013-01-27 17:00:00,
2013-01-27 12:05:00,25.7,16.7,30.43,WNW,288,0.0,0.0,68,0.00,,,0.00,WUHU216DAVISVP2,2013-01-27 17:05:00,
2013-01-27 12:10:00,25.6,16.9,30.43,NW,311,0.0,0.0,69,0.00,,,0.00,WUHU216DAVISVP2,2013-01-27 17:10:00,
2013-01-27 12:15:00,25.7,17.3,30.42,NNE,16,0.0,0.0,70,0.00,,,0.00,WUHU216DAVISVP2,2013-01-27 17:15:00,
2013-01-27 12:20:00,26.1,18.0,30.42,WNW,302,0.0,0.0,71,0.00,,,0.00,WUHU216DAVISVP2,2013-01-27 17:20:00,
2013-01-27 12:26:00,26.4,18.3,30.42,North,11,0.0,0.0,71,0.00,,,0.00,WUHU216DAVISVP2,2013-01-27 17:26:00,
2013-01-27 12:31:00,26.7,18.2,30.42,NW,308,0.0,0.0,70,0.00,,,0.00,WUHU216DAVISVP2,2013-01-27 17:31:00,
2013-01-27 12:36:00,26.9,18.4,30.42,NNE,27,0.0,0.0,70,0.00,,,0.00,WUHU216DAVISVP2,2013-01-27 17:36:00,
2013-01-27 12:41:00,27.1,18.6,30.42,NE,44,0.0,0.0,70,0.00,,,0.00,WUHU216DAVISVP2,2013-01-27 17:41:00,
2013-01-27 12:46:00,27.3,18.5,30.41,WSW,253,0.0,0.0,69,0.00,,,0.00,WUHU216DAVISVP2,2013-01-27 17:46:00,
2013-01-27 12:51:00,27.2,18.1,30.41,NNW,346,0.0,0.0,68,0.00,,,0.00,WUHU216DAVISVP2,2013-01-27 17:51:00,
2013-01-27 12:56:00,27.1,18.0,30.40,WNW,282,0.0,0.0,68,0.00,,,0.00,WUHU216DAVISVP2,2013-01-27 17:56:00,
2013-01-27 13:01:00,27.0,18.2,30.40,NNW,340,0.0,0.0,69,0.00,,,0.00,WUHU216DAVISVP2,2013-01-27 18:01:00,
2013-01-27 13:06:00,27.3,18.5,30.39,SSW,199,0.0,0.0,69,0.00,,,0.00,WUHU216DAVISVP2,2013-01-27 18:06:00,
2013-01-27 13:11:00,27.4,18.6,30.39,NNW,343,0.0,0.0,69,0.00,,,0.00,WUHU216DAVISVP2,2013-01-27 18:11:00,
2013-01-27 13:16:00,27.4,18.6,30.38,NW,306,0.0,0.0,69,0.00,,,0.00,WUHU216DAVISVP2,2013-01-27 18:16:00,
2013-01-27 13:22:00,27.3,18.5,30.37,WSW,247,0.0,0.0,69,0.00,,,0.00,WUHU216DAVISVP2,2013-01-27 18:22:00,
2013-01-27 13:27:00,27.4,19.0,30.37,SSE,167,0.0,0.0,70,0.00,,,0.00,WUHU216DAVISVP2,2013-01-27 18:27:00,
2013-01-27 13:32:00,27.4,19.6,30.37,SSE,167,0.0,0.0,72,0.00,,,0.00,WUHU216DAVISVP2,2013-01-27 18:32:00,
2013-01-27 13:37:00,27.5,19.7,30.37,SSE,168,0.0,0.0,72,0.00,,,0.00,WUHU216DAVISVP2,2013-01-27 18:37:00,
2013-01-27 13:42:00,27.7,19.6,30.37,SSE,167,0.0,0.0,71,0.00,,,0.00,WUHU216DAVISVP2,2013-01-27 18:42:00,
2013-01-27 13:47:00,27.7,19.6,30.36,SSE,167,0.0,0.0,71,0.00,,,0.00,WUHU216DAVISVP2,2013-01-27 18:47:00,
2013-01-27 13:52:00,27.8,19.3,30.37,SW,219,0.0,0.0,70,0.00,,,0.00,WUHU216DAVISVP2,2013-01-27 18:52:00,
2013-01-27 13:57:00,27.6,19.1,30.36,SSE,167,0.0,0.0,70,0.00,,,0.00,WUHU216DAVISVP2,2013-01-27 18:57:00,
2013-01-27 14:02:00,27.6,20.1,30.36,SSE,167,0.0,0.0,73,0.00,,,0.00,WUHU216DAVISVP2,2013-01-27 19:02:00,
2013-01-27 14:08:00,27.7,19.9,30.35,WNW,290,0.0,0.0,72,0.00,,,0.00,WUHU216DAVISVP2,2013-01-27 19:08:00,
2013-01-27 14:13:00,27.7,19.9,30.35,West,278,0.0,0.0,72,0.00,,,0.00,WUHU216DAVISVP2,2013-01-27 19:13:00,
2013-01-27 14:18:00,27.9,20.1,30.35,South,173,0.0,0.0,72,0.00,,,0.00,WUHU216DAVISVP2,2013-01-27 19:18:00,
2013-01-27 14:23:00,28.0,20.5,30.34,SSE,167,0.0,0.0,73,0.00,,,0.00,WUHU216DAVISVP2,2013-01-27 19:23:00,
2013-01-27 14:28:00,28.1,20.6,30.34,SSE,168,0.0,0.0,73,0.00,,,0.00,WUHU216DAVISVP2,2013-01-27 19:28:00,
2013-01-27 14:33:00,28.4,20.9,30.35,NNW,333,0.0,0.0,73,0.00,,,0.00,WUHU216DAVISVP2,2013-01-27 19:33:00,
2013-01-27 14:38:00,28.7,20.9,30.35,NNW,335,0.0,0.0,72,0.00,,,0.00,WUHU216DAVISVP2,2013-01-27 19:38:00,
2013-01-27 14:43:00,28.7,20.5,30.34,SW,226,0.0,0.0,71,0.00,,,0.00,WUHU216DAVISVP2,2013-01-27 19:43:00,
2013-01-27 14:48:00,28.5,20.7,30.34,NW,323,0.0,0.0,72,0.00,,,0.00,WUHU216DAVISVP2,2013-01-27 19:48:00,
2013-01-27 14:53:00,28.5,21.0,30.33,South,188,0.0,0.0,73,0.00,,,0.00,WUHU216DAVISVP2,2013-01-27 19:53:00,
2013-01-27 14:58:00,28.4,20.9,30.33,West,269,0.0,0.0,73,0.00,,,0.00,WUHU216DAVISVP2,2013-01-27 19:58:00,
2013-01-27 15:03:00,28.5,21.0,30.33,SW,223,0.0,0.0,73,0.00,,,0.00,WUHU216DAVISVP2,2013-01-27 20:03:00,
2013-01-27 15:08:00,28.5,21.3,30.33,SSE,167,0.0,0.0,74,0.00,,,0.00,WUHU216DAVISVP2,2013-01-27 20:08:00,
2013-01-27 15:13:00,28.6,21.7,30.33,WSW,237,0.0,0.0,75,0.00,,,0.00,WUHU216DAVISVP2,2013-01-27 20:13:00,
2013-01-27 15:19:00,28.8,21.9,30.32,WSW,240,0.0,0.0,75,0.00,,,0.00,WUHU216DAVISVP2,2013-01-27 20:19:00,
2013-01-27 15:24:00,28.9,22.0,30.31,SSE,167,0.0,0.0,75,0.00,,,0.00,WUHU216DAVISVP2,2013-01-27 20:24:00,
2013-01-27 15:29:00,28.9,22.0,30.31,SSE,167,0.0,0.0,75,0.00,,,0.00,WUHU216DAVISVP2,2013-01-27 20:29:00,
2013-01-27 15:34:00,28.9,22.0,30.31,South,170,0.0,0.0,75,0.00,,,0.00,WUHU216DAVISVP2,2013-01-27 20:34:00,
2013-01-27 15:39:00,29.0,22.1,30.31,SSE,167,0.0,0.0,75,0.00,,,0.00,WUHU216DAVISVP2,2013-01-27 20:39:00,
2013-01-27 15:44:00,29.0,22.1,30.31,SSW,197,0.0,0.0,75,0.00,,,0.00,WUHU216DAVISVP2,2013-01-27 20:44:00,
2013-01-27 15:49:00,28.9,22.0,30.30,SSE,167,0.0,0.0,75,0.00,,,0.00,WUHU216DAVISVP2,2013-01-27 20:49:00,
2013-01-27 15:55:00,28.9,22.3,30.30,SSE,167,0.0,0.0,76,0.00,,,0.00,WUHU216DAVISVP2,2013-01-27 20:55:00,
2013-01-27 16:00:00,28.9,22.0,30.30,SSE,167,0.0,0.0,75,0.00,,,0.00,WUHU216DAVISVP2,2013-01-27 21:00:00,
2013-01-27 16:05:00,29.0,22.4,30.30,SSE,167,0.0,0.0,76,0.00,,,0.00,WUHU216DAVISVP2,2013-01-27 21:05:00,
2013-01-27 16:10:00,29.0,22.4,30.30,SSE,167,0.0,0.0,76,0.00,,,0.00,WUHU216DAVISVP2,2013-01-27 21:10:00,
2013-01-27 16:15:00,28.9,22.3,30.29,SSE,167,0.0,0.0,76,0.00,,,0.00,WUHU216DAVISVP2,2013-01-27 21:15:00,
2013-01-27 16:20:00,28.9,22.3,30.29,SSE,167,0.0,0.0,76,0.00,,,0.00,WUHU216DAVISVP2,2013-01-27 21:20:00,
2013-01-27 16:25:00,28.9,22.6,30.29,SSE,167,0.0,0.0,77,0.00,,,0.00,WUHU216DAVISVP2,2013-01-27 21:25:00,
2013-01-27 16:30:00,28.9,22.6,30.29,South,176,0.0,0.0,77,0.00,,,0.00,WUHU216DAVISVP2,2013-01-27 21:30:00,
2013-01-27 16:35:00,28.9,22.6,30.29,South,176,0.0,0.0,77,0.00,,,0.00,WUHU216DAVISVP2,2013-01-27 21:35:00,
2013-01-27 16:40:00,29.0,22.7,30.29,South,172,0.0,0.0,77,0.00,,,0.00,WUHU216DAVISVP2,2013-01-27 21:40:00,
2013-01-27 16:45:00,28.9,22.3,30.29,South,182,0.0,0.0,76,0.00,,,0.00,WUHU216DAVISVP2,2013-01-27 21:45:00,
2013-01-27 16:50:00,28.8,22.5,30.30,South,171,0.0,0.0,77,0.00,,,0.00,WUHU216DAVISVP2,2013-01-27 21:50:00,
2013-01-27 16:55:00,28.8,22.2,30.30,SSE,167,0.0,0.0,76,0.00,,,0.00,WUHU216DAVISVP2,2013-01-27 21:55:00,
2013-01-27 17:00:00,28.7,22.1,30.31,WSW,239,0.0,0.0,76,0.00,,,0.00,WUHU216DAVISVP2,2013-01-27 22:00:00,
2013-01-27 17:06:00,28.7,22.4,30.32,SSE,167,0.0,0.0,77,0.00,,,0.00,WUHU216DAVISVP2,2013-01-27 22:06:00,
2013-01-27 17:11:00,28.7,22.4,30.32,SSE,167,0.0,0.0,77,0.00,,,0.00,WUHU216DAVISVP2,2013-01-27 22:11:00,
2013-01-27 17:16:00,28.7,22.1,30.31,SSE,167,0.0,0.0,76,0.00,,,0.00,WUHU216DAVISVP2,2013-01-27 22:16:00,
2013-01-27 17:21:00,28.6,22.0,30.32,WNW,296,0.0,0.0,76,0.00,,,0.00,WUHU216DAVISVP2,2013-01-27 22:21:00,
2013-01-27 17:26:00,28.6,22.0,30.32,ESE,123,0.0,0.0,76,0.00,,,0.00,WUHU216DAVISVP2,2013-01-27 22:26:00,
2013-01-27 17:31:00,28.7,22.1,30.32,SW,232,0.0,0.0,76,0.00,,,0.00,WUHU216DAVISVP2,2013-01-27 22:31:00,
2013-01-27 17:36:00,28.7,22.1,30.32,SW,220,0.0,0.0,76,0.00,,,0.00,WUHU216DAVISVP2,2013-01-27 22:36:00,
2013-01-27 17:41:00,28.6,22.3,30.32,WSW,246,0.0,0.0,77,0.00,,,0.00,WUHU216DAVISVP2,2013-01-27 22:41:00,
2013-01-27 17:46:00,28.5,22.2,30.32,SSE,167,0.0,0.0,77,0.00,,,0.00,WUHU216DAVISVP2,2013-01-27 22:46:00,
2013-01-27 17:52:00,28.5,22.5,30.31,SW,223,0.0,0.0,78,0.00,,,0.00,WUHU216DAVISVP2,2013-01-27 22:52:00,
2013-01-27 17:57:00,28.5,22.5,30.31,SSE,167,0.0,0.0,78,0.00,,,0.00,WUHU216DAVISVP2,2013-01-27 22:57:00,
2013-01-27 18:02:00,28.4,22.7,30.31,SSE,167,0.0,0.0,79,0.00,,,0.00,WUHU216DAVISVP2,2013-01-27 23:02:00,
2013-01-27 18:07:00,28.3,22.6,30.32,SSE,167,0.0,0.0,79,0.00,,,0.00,WUHU216DAVISVP2,2013-01-27 23:07:00,
2013-01-27 18:12:00,28.3,22.9,30.31,SSE,167,0.0,0.0,80,0.00,,,0.00,WUHU216DAVISVP2,2013-01-27 23:12:00,
2013-01-27 18:17:00,28.2,23.1,30.31,SSE,167,0.0,0.0,81,0.00,,,0.00,WUHU216DAVISVP2,2013-01-27 23:17:00,
2013-01-27 18:22:00,28.2,23.4,30.31,SSE,167,0.0,0.0,82,0.00,,,0.00,WUHU216DAVISVP2,2013-01-27 23:22:00,
2013-01-27 18:27:00,28.2,23.4,30.32,SSE,167,0.0,0.0,82,0.00,,,0.00,WUHU216DAVISVP2,2013-01-27 23:27:00,
2013-01-27 18:32:00,28.1,23.9,30.31,SSE,167,0.0,0.0,84,0.00,,,0.00,WUHU216DAVISVP2,2013-01-27 23:32:00,
2013-01-27 18:37:00,27.9,23.7,30.31,SSE,167,0.0,0.0,84,0.00,,,0.00,WUHU216DAVISVP2,2013-01-27 23:37:00,
2013-01-27 18:42:00,27.9,23.9,30.29,SSE,167,0.0,0.0,85,0.00,,,0.00,WUHU216DAVISVP2,2013-01-27 23:42:00,
2013-01-27 18:48:00,27.8,24.1,30.28,SSE,167,0.0,0.0,86,0.00,,,0.00,WUHU216DAVISVP2,2013-01-27 23:48:00,
2013-01-27 18:53:00,27.6,24.2,30.27,SSE,167,0.0,0.0,87,0.00,,,0.00,WUHU216DAVISVP2,2013-01-27 23:53:00,
2013-01-27 18:58:00,27.4,24.3,30.26,SSE,167,0.0,0.0,88,0.00,,,0.00,WUHU216DAVISVP2,2013-01-27 23:58:00,
2013-01-27 19:03:00,27.3,24.2,30.26,SSE,167,0.0,0.0,88,0.00,,,0.00,WUHU216DAVISVP2,2013-01-28 00:03:00,
2013-01-27 19:08:00,27.1,24.2,30.25,SSE,167,0.0,0.0,89,0.00,,,0.00,WUHU216DAVISVP2,2013-01-28 00:08:00,
2013-01-27 19:13:00,27.1,24.2,30.25,SSE,167,0.0,0.0,89,0.00,,,0.00,WUHU216DAVISVP2,2013-01-28 00:13:00,
2013-01-27 19:18:00,27.1,24.5,30.26,SSE,167,0.0,0.0,90,0.00,,,0.00,WUHU216DAVISVP2,2013-01-28 00:18:00,
2013-01-27 19:23:00,27.1,24.5,30.25,SSE,167,0.0,0.0,90,0.00,,,0.00,WUHU216DAVISVP2,2013-01-28 00:23:00,
2013-01-27 19:28:00,27.1,24.5,30.25,SSE,167,0.0,0.0,90,0.00,,,0.00,WUHU216DAVISVP2,2013-01-28 00:28:00,
2013-01-27 19:34:00,27.3,25.0,30.26,NW,315,0.0,0.0,91,0.00,,,0.00,WUHU216DAVISVP2,2013-01-28 00:34:00,
2013-01-27 19:39:00,27.4,24.8,30.24,SSE,167,0.0,0.0,90,0.00,,,0.00,WUHU216DAVISVP2,2013-01-28 00:39:00,
2013-01-27 19:44:00,27.4,24.8,30.23,SSE,167,0.0,0.0,90,0.00,,,0.00,WUHU216DAVISVP2,2013-01-28 00:44:00,
2013-01-27 19:49:00,27.4,24.8,30.24,SSE,167,0.0,0.0,90,0.00,,,0.00,WUHU216DAVISVP2,2013-01-28 00:49:00,
2013-01-27 19:54:00,27.3,24.7,30.24,SSE,167,0.0,0.0,90,0.00,,,0.00,WUHU216DAVISVP2,2013-01-28 00:54:00,
2013-01-27 19:59:00,27.4,25.1,30.26,SSW,212,0.0,0.0,91,0.00,,,0.00,WUHU216DAVISVP2,2013-01-28 00:59:00,
2013-01-27 20:04:00,27.4,25.1,30.26,SSW,212,0.0,0.0,91,0.00,,,0.00,WUHU216DAVISVP2,2013-01-28 01:04:00,
2013-01-27 20:09:00,27.5,25.2,30.27,SSE,167,0.0,0.0,91,0.00,,,0.00,WUHU216DAVISVP2,2013-01-28 01:09:00,
2013-01-27 20:15:00,27.6,25.3,30.27,SSE,167,0.0,0.0,91,0.00,,,0.00,WUHU216DAVISVP2,2013-01-28 01:15:00,
2013-01-27 20:20:00,27.7,25.1,30.27,SSE,167,0.0,0.0,90,0.00,,,0.00,WUHU216DAVISVP2,2013-01-28 01:20:00,
2013-01-27 20:25:00,27.7,25.1,30.27,SSE,167,0.0,0.0,90,0.00,,,0.00,WUHU216DAVISVP2,2013-01-28 01:25:00,
2013-01-27 20:30:00,27.7,25.1,30.27,SSE,167,0.0,0.0,90,0.00,,,0.00,WUHU216DAVISVP2,2013-01-28 01:30:00,
2013-01-27 20:35:00,27.8,25.2,30.25,SSE,167,0.0,0.0,90,0.00,,,0.00,WUHU216DAVISVP2,2013-01-28 01:35:00,
2013-01-27 20:40:00,27.8,25.2,30.24,SSE,167,0.0,0.0,90,0.00,,,0.00,WUHU216DAVISVP2,2013-01-28 01:40:00,
2013-01-27 20:45:00,27.8,25.2,30.23,SSE,167,0.0,0.0,90,0.00,,,0.00,WUHU216DAVISVP2,2013-01-28 01:45:00,
2013-01-27 20:50:00,27.8,25.2,30.22,SSE,167,0.0,0.0,90,0.00,,,0.00,WUHU216DAVISVP2,2013-01-28 01:50:00,
2013-01-27 20:55:00,27.8,25.2,30.21,SSE,167,0.0,0.0,90,0.00,,,0.00,WUHU216DAVISVP2,2013-01-28 01:55:00,
2013-01-27 21:00:00,27.9,25.3,30.21,SSW,202,0.0,0.0,90,0.00,,,0.00,WUHU216DAVISVP2,2013-01-28 02:00:00,
2013-01-27 21:06:00,27.9,25.3,30.21,West,271,0.0,0.0,90,0.00,,,0.00,WUHU216DAVISVP2,2013-01-28 02:06:00,
2013-01-27 21:11:00,27.9,25.3,30.20,SSE,167,0.0,0.0,90,0.00,,,0.00,WUHU216DAVISVP2,2013-01-28 02:11:00,
2013-01-27 21:16:00,28.0,25.1,30.20,SSE,167,0.0,0.0,89,0.00,,,0.00,WUHU216DAVISVP2,2013-01-28 02:16:00,
2013-01-27 21:21:00,28.0,25.2,30.19,South,170,0.0,0.0,89,0.00,,,0.00,WUHU216DAVISVP2,2013-01-28 02:21:00,
2013-01-27 21:26:00,28.1,25.2,30.20,West,277,0.0,0.0,89,0.00,,,0.00,WUHU216DAVISVP2,2013-01-28 02:26:00,
2013-01-27 21:31:00,28.2,25.3,30.20,West,275,0.0,0.0,89,0.00,,,0.00,WUHU216DAVISVP2,2013-01-28 02:31:00,
2013-01-27 21:36:00,28.3,25.4,30.20,West,271,0.0,0.0,89,0.00,,,0.00,WUHU216DAVISVP2,2013-01-28 02:36:00,
2013-01-27 21:41:00,28.4,25.5,30.20,SSE,167,0.0,0.0,89,0.00,,,0.00,WUHU216DAVISVP2,2013-01-28 02:41:00,
2013-01-27 21:47:00,28.7,25.9,30.18,SSE,167,0.0,0.0,89,0.00,,,0.00,WUHU216DAVISVP2,2013-01-28 02:47:00,
2013-01-27 21:52:00,28.8,26.0,30.18,SSE,167,0.0,0.0,89,0.00,,,0.00,WUHU216DAVISVP2,2013-01-28 02:52:00,
2013-01-27 21:57:00,28.9,26.3,30.17,South,173,0.0,0.0,90,0.00,,,0.00,WUHU216DAVISVP2,2013-01-28 02:57:00,
2013-01-27 22:02:00,29.2,26.6,30.16,SSE,167,0.0,0.0,90,0.00,,,0.00,WUHU216DAVISVP2,2013-01-28 03:02:00,
2013-01-27 22:07:00,29.3,26.7,30.16,SSE,167,0.0,0.0,90,0.00,,,0.00,WUHU216DAVISVP2,2013-01-28 03:07:00,
2013-01-27 22:12:00,29.4,26.8,30.17,SSE,167,0.0,0.0,90,0.00,,,0.00,WUHU216DAVISVP2,2013-01-28 03:12:00,
2013-01-27 22:17:00,29.4,27.0,30.16,South,183,0.0,0.0,91,0.00,,,0.00,WUHU216DAVISVP2,2013-01-28 03:17:00,
2013-01-27 22:22:00,29.4,26.8,30.16,SSW,194,0.0,0.0,90,0.00,,,0.00,WUHU216DAVISVP2,2013-01-28 03:22:00,
2013-01-27 22:27:00,29.5,27.1,30.16,South,179,0.0,0.0,91,0.00,,,0.00,WUHU216DAVISVP2,2013-01-28 03:27:00,
2013-01-27 22:32:00,29.5,27.1,30.15,SW,220,0.0,0.0,91,0.00,,,0.00,WUHU216DAVISVP2,2013-01-28 03:32:00,
2013-01-27 22:37:00,29.6,27.2,30.16,SSW,196,0.0,0.0,91,0.00,,,0.00,WUHU216DAVISVP2,2013-01-28 03:37:00,
2013-01-27 22:43:00,29.7,27.3,30.15,SSE,167,0.0,0.0,91,0.00,,,0.00,WUHU216DAVISVP2,2013-01-28 03:43:00,
2013-01-27 22:48:00,29.8,27.2,30.15,SSE,167,0.0,0.0,90,0.00,,,0.00,WUHU216DAVISVP2,2013-01-28 03:48:00,
2013-01-27 22:53:00,29.9,27.3,30.15,West,273,0.0,0.0,90,0.00,,,0.00,WUHU216DAVISVP2,2013-01-28 03:53:00,
2013-01-27 22:58:00,30.0,27.4,30.14,ESE,122,0.0,0.0,90,0.00,,,0.00,WUHU216DAVISVP2,2013-01-28 03:58:00,
2013-01-27 23:03:00,30.1,27.5,30.14,ESE,122,0.0,0.0,90,0.00,,,0.00,WUHU216DAVISVP2,2013-01-28 04:03:00,
2013-01-27 23:08:00,30.1,27.5,30.14,NNE,12,0.0,0.0,90,0.00,,,0.00,WUHU216DAVISVP2,2013-01-28 04:08:00,
2013-01-27 23:13:00,30.1,27.5,30.13,ESE,116,0.0,0.0,90,0.00,,,0.00,WUHU216DAVISVP2,2013-01-28 04:13:00,
2013-01-27 23:18:00,30.1,27.5,30.12,ESE,122,0.0,0.0,90,0.00,,,0.00,WUHU216DAVISVP2,2013-01-28 04:18:00,
2013-01-27 23:23:00,30.2,27.6,30.11,ESE,122,0.0,0.0,90,0.00,,,0.00,WUHU216DAVISVP2,2013-01-28 04:23:00,
2013-01-27 23:29:00,30.3,27.7,30.10,ESE,114,0.0,0.0,90,0.00,,,0.00,WUHU216DAVISVP2,2013-01-28 04:29:00,
2013-01-27 23:34:00,30.4,27.8,30.10,ESE,122,0.0,0.0,90,0.00,,,0.00,WUHU216DAVISVP2,2013-01-28 04:34:00,
2013-01-27 23:39:00,30.5,27.9,30.10,NE,52,0.0,0.0,90,0.00,,,0.00,WUHU216DAVISVP2,2013-01-28 04:39:00,
2013-01-27 23:44:00,30.6,28.0,30.10,SSE,167,0.0,0.0,90,0.00,,,0.00,WUHU216DAVISVP2,2013-01-28 04:44:00,
2013-01-27 23:49:00,30.6,28.0,30.11,SSE,167,0.0,0.0,90,0.00,,,0.00,WUHU216DAVISVP2,2013-01-28 04:49:00,
2013-01-27 23:54:00,30.7,28.1,30.11,SSE,167,0.0,0.0,90,0.00,,,0.00,WUHU216DAVISVP2,2013-01-28 04:54:00,
2013-01-27 23:59:00,30.9,28.5,30.13,SSE,167,0.0,0.0,91,0.00,,,0.00,WUHU216DAVISVP2,2013-01-28 04:59:00,